sensor_id;sensor_type;location;lat;lon;timestamp;P1;durP1;ratioP1;P2;durP2;ratioP2
16642;SDS011;8435;52.184;5.406;2023-02-23T00:01:11;38.03;;;28.23;;
16642;SDS011;8435;52.184;5.406;2023-02-23T00:03:40;40.10;;;28.60;;
16642;SDS011;8435;52.184;5.406;2023-02-23T00:06:07;36.90;;;28.03;;
16642;SDS011;8435;52.184;5.406;2023-02-23T00:08:34;41.57;;;29.70;;
16642;SDS011;8435;52.184;5.406;2023-02-23T00:11:04;37.53;;;28.13;;
16642;SDS011;8435;52.184;5.406;2023-02-23T00:13:32;36.37;;;27.40;;
16642;SDS011;8435;52.184;5.406;2023-02-23T00:16:03;38.10;;;28.50;;
16642;SDS011;8435;52.184;5.406;2023-02-23T00:18:31;39.00;;;28.23;;
16642;SDS011;8435;52.184;5.406;2023-02-23T00:21:09;35.77;;;27.53;;
16642;SDS011;8435;52.184;5.406;2023-02-23T00:23:39;41.13;;;29.47;;
16642;SDS011;8435;52.184;5.406;2023-02-23T00:26:07;43.33;;;29.33;;
16642;SDS011;8435;52.184;5.406;2023-02-23T00:28:34;43.27;;;30.23;;
16642;SDS011;8435;52.184;5.406;2023-02-23T00:31:02;39.87;;;29.83;;
16642;SDS011;8435;52.184;5.406;2023-02-23T00:33:29;40.17;;;30.83;;
16642;SDS011;8435;52.184;5.406;2023-02-23T00:36:02;41.03;;;30.43;;
16642;SDS011;8435;52.184;5.406;2023-02-23T00:38:30;41.27;;;29.70;;
16642;SDS011;8435;52.184;5.406;2023-02-23T00:41:02;44.27;;;30.47;;
16642;SDS011;8435;52.184;5.406;2023-02-23T00:43:33;38.93;;;28.30;;
16642;SDS011;8435;52.184;5.406;2023-02-23T00:46:01;41.07;;;28.90;;
16642;SDS011;8435;52.184;5.406;2023-02-23T00:48:30;43.20;;;30.60;;
16642;SDS011;8435;52.184;5.406;2023-02-23T00:50:58;40.10;;;29.10;;
16642;SDS011;8435;52.184;5.406;2023-02-23T00:53:25;40.77;;;29.03;;
16642;SDS011;8435;52.184;5.406;2023-02-23T00:55:55;41.93;;;31.13;;
16642;SDS011;8435;52.184;5.406;2023-02-23T00:58:22;42.67;;;31.20;;
16642;SDS011;8435;52.184;5.406;2023-02-23T01:00:52;42.30;;;29.97;;
16642;SDS011;8435;52.184;5.406;2023-02-23T01:03:23;43.27;;;31.03;;
16642;SDS011;8435;52.184;5.406;2023-02-23T01:05:50;46.50;;;31.60;;
16642;SDS011;8435;52.184;5.406;2023-02-23T01:08:19;44.07;;;31.57;;
16642;SDS011;8435;52.184;5.406;2023-02-23T01:10:47;42.20;;;30.03;;
16642;SDS011;8435;52.184;5.406;2023-02-23T01:13:17;42.90;;;29.93;;
16642;SDS011;8435;52.184;5.406;2023-02-23T01:15:44;44.60;;;32.00;;
16642;SDS011;8435;52.184;5.406;2023-02-23T01:18:13;40.47;;;30.40;;
16642;SDS011;8435;52.184;5.406;2023-02-23T01:20:42;40.27;;;30.43;;
16642;SDS011;8435;52.184;5.406;2023-02-23T01:23:10;41.67;;;31.60;;
16642;SDS011;8435;52.184;5.406;2023-02-23T01:25:39;41.27;;;30.47;;
16642;SDS011;8435;52.184;5.406;2023-02-23T01:28:07;41.47;;;30.40;;
16642;SDS011;8435;52.184;5.406;2023-02-23T01:30:36;41.60;;;30.93;;
16642;SDS011;8435;52.184;5.406;2023-02-23T01:33:03;40.80;;;30.10;;
16642;SDS011;8435;52.184;5.406;2023-02-23T01:35:32;40.53;;;29.93;;
16642;SDS011;8435;52.184;5.406;2023-02-23T01:37:58;43.23;;;30.47;;
16642;SDS011;8435;52.184;5.406;2023-02-23T01:40:26;43.10;;;31.33;;
16642;SDS011;8435;52.184;5.406;2023-02-23T01:42:56;45.07;;;32.80;;
16642;SDS011;8435;52.184;5.406;2023-02-23T01:45:28;42.40;;;30.17;;
16642;SDS011;8435;52.184;5.406;2023-02-23T01:47:59;44.53;;;32.40;;
16642;SDS011;8435;52.184;5.406;2023-02-23T01:50:35;46.03;;;31.33;;
16642;SDS011;8435;52.184;5.406;2023-02-23T01:53:07;39.77;;;29.07;;
16642;SDS011;8435;52.184;5.406;2023-02-23T01:55:34;42.40;;;29.70;;
16642;SDS011;8435;52.184;5.406;2023-02-23T01:58:04;39.50;;;29.47;;
16642;SDS011;8435;52.184;5.406;2023-02-23T02:00:39;42.33;;;31.20;;
16642;SDS011;8435;52.184;5.406;2023-02-23T02:03:09;42.03;;;30.13;;
16642;SDS011;8435;52.184;5.406;2023-02-23T02:05:42;45.40;;;31.93;;
16642;SDS011;8435;52.184;5.406;2023-02-23T02:08:10;43.43;;;31.20;;
16642;SDS011;8435;52.184;5.406;2023-02-23T02:10:37;44.43;;;31.33;;
16642;SDS011;8435;52.184;5.406;2023-02-23T02:13:05;42.53;;;30.93;;
16642;SDS011;8435;52.184;5.406;2023-02-23T02:15:34;42.40;;;30.77;;
16642;SDS011;8435;52.184;5.406;2023-02-23T02:18:10;46.17;;;32.27;;
16642;SDS011;8435;52.184;5.406;2023-02-23T02:27:08;39.10;;;28.83;;
16642;SDS011;8435;52.184;5.406;2023-02-23T02:29:52;39.63;;;28.87;;
16642;SDS011;8435;52.184;5.406;2023-02-23T02:32:40;42.73;;;30.37;;
16642;SDS011;8435;52.184;5.406;2023-02-23T02:38:36;41.60;;;29.30;;
16642;SDS011;8435;52.184;5.406;2023-02-23T02:41:16;44.53;;;31.70;;
16642;SDS011;8435;52.184;5.406;2023-02-23T02:43:47;44.30;;;31.80;;
16642;SDS011;8435;52.184;5.406;2023-02-23T02:46:24;43.37;;;30.07;;
16642;SDS011;8435;52.184;5.406;2023-02-23T02:48:56;42.13;;;31.67;;
16642;SDS011;8435;52.184;5.406;2023-02-23T02:51:31;40.77;;;29.37;;
16642;SDS011;8435;52.184;5.406;2023-02-23T02:54:06;42.67;;;30.87;;
16642;SDS011;8435;52.184;5.406;2023-02-23T02:56:40;44.13;;;31.47;;
16642;SDS011;8435;52.184;5.406;2023-02-23T02:59:10;43.57;;;32.37;;
16642;SDS011;8435;52.184;5.406;2023-02-23T03:01:57;39.87;;;30.17;;
16642;SDS011;8435;52.184;5.406;2023-02-23T03:04:41;39.53;;;29.60;;
16642;SDS011;8435;52.184;5.406;2023-02-23T03:07:27;45.53;;;32.17;;
16642;SDS011;8435;52.184;5.406;2023-02-23T03:10:19;44.03;;;30.80;;
16642;SDS011;8435;52.184;5.406;2023-02-23T03:13:15;45.03;;;31.30;;
16642;SDS011;8435;52.184;5.406;2023-02-23T03:16:10;39.37;;;29.53;;
16642;SDS011;8435;52.184;5.406;2023-02-23T03:19:09;43.10;;;30.20;;
16642;SDS011;8435;52.184;5.406;2023-02-23T03:22:00;40.03;;;29.87;;
16642;SDS011;8435;52.184;5.406;2023-02-23T03:24:52;41.23;;;28.73;;
16642;SDS011;8435;52.184;5.406;2023-02-23T03:27:43;39.30;;;28.60;;
16642;SDS011;8435;52.184;5.406;2023-02-23T03:30:33;43.43;;;30.10;;
16642;SDS011;8435;52.184;5.406;2023-02-23T03:33:24;42.40;;;28.80;;
16642;SDS011;8435;52.184;5.406;2023-02-23T03:36:16;44.70;;;31.03;;
16642;SDS011;8435;52.184;5.406;2023-02-23T03:39:09;43.80;;;30.93;;
16642;SDS011;8435;52.184;5.406;2023-02-23T03:42:03;41.80;;;30.40;;
16642;SDS011;8435;52.184;5.406;2023-02-23T03:44:53;44.87;;;30.57;;
16642;SDS011;8435;52.184;5.406;2023-02-23T03:47:40;44.97;;;31.43;;
16642;SDS011;8435;52.184;5.406;2023-02-23T03:50:29;46.30;;;31.80;;
16642;SDS011;8435;52.184;5.406;2023-02-23T03:53:18;42.30;;;30.40;;
16642;SDS011;8435;52.184;5.406;2023-02-23T03:56:07;42.17;;;29.83;;
16642;SDS011;8435;52.184;5.406;2023-02-23T03:58:54;40.77;;;29.87;;
16642;SDS011;8435;52.184;5.406;2023-02-23T04:01:43;42.70;;;30.20;;
16642;SDS011;8435;52.184;5.406;2023-02-23T04:04:28;41.30;;;28.90;;
16642;SDS011;8435;52.184;5.406;2023-02-23T04:07:14;41.83;;;30.00;;
16642;SDS011;8435;52.184;5.406;2023-02-23T04:10:04;43.17;;;30.57;;
16642;SDS011;8435;52.184;5.406;2023-02-23T04:12:51;40.43;;;29.40;;
16642;SDS011;8435;52.184;5.406;2023-02-23T04:15:46;41.63;;;30.47;;
16642;SDS011;8435;52.184;5.406;2023-02-23T04:18:16;40.57;;;29.77;;
16642;SDS011;8435;52.184;5.406;2023-02-23T04:20:45;43.63;;;30.57;;
16642;SDS011;8435;52.184;5.406;2023-02-23T04:23:12;41.27;;;30.40;;
16642;SDS011;8435;52.184;5.406;2023-02-23T04:25:39;41.60;;;28.10;;
16642;SDS011;8435;52.184;5.406;2023-02-23T04:28:06;40.93;;;29.17;;
16642;SDS011;8435;52.184;5.406;2023-02-23T04:30:42;42.73;;;30.23;;
16642;SDS011;8435;52.184;5.406;2023-02-23T04:33:09;40.00;;;29.67;;
16642;SDS011;8435;52.184;5.406;2023-02-23T04:35:38;43.67;;;30.37;;
16642;SDS011;8435;52.184;5.406;2023-02-23T04:38:04;42.83;;;30.50;;
16642;SDS011;8435;52.184;5.406;2023-02-23T04:40:36;42.40;;;29.03;;
16642;SDS011;8435;52.184;5.406;2023-02-23T04:43:03;43.50;;;30.10;;
16642;SDS011;8435;52.184;5.406;2023-02-23T04:45:30;47.80;;;33.00;;
16642;SDS011;8435;52.184;5.406;2023-02-23T04:47:57;44.40;;;31.30;;
16642;SDS011;8435;52.184;5.406;2023-02-23T04:50:24;42.30;;;30.83;;
16642;SDS011;8435;52.184;5.406;2023-02-23T04:52:52;45.00;;;30.43;;
16642;SDS011;8435;52.184;5.406;2023-02-23T04:55:20;44.13;;;30.93;;
16642;SDS011;8435;52.184;5.406;2023-02-23T04:57:48;40.50;;;28.77;;
16642;SDS011;8435;52.184;5.406;2023-02-23T05:00:21;42.73;;;30.13;;
16642;SDS011;8435;52.184;5.406;2023-02-23T05:02:48;43.47;;;30.27;;
16642;SDS011;8435;52.184;5.406;2023-02-23T05:05:15;44.17;;;31.57;;
16642;SDS011;8435;52.184;5.406;2023-02-23T05:07:42;43.87;;;30.50;;
16642;SDS011;8435;52.184;5.406;2023-02-23T05:10:11;44.37;;;31.33;;
16642;SDS011;8435;52.184;5.406;2023-02-23T05:12:38;41.73;;;30.50;;
16642;SDS011;8435;52.184;5.406;2023-02-23T05:15:05;46.50;;;32.63;;
16642;SDS011;8435;52.184;5.406;2023-02-23T05:17:36;47.03;;;31.80;;
16642;SDS011;8435;52.184;5.406;2023-02-23T05:20:04;44.00;;;31.03;;
16642;SDS011;8435;52.184;5.406;2023-02-23T05:22:32;47.47;;;32.93;;
16642;SDS011;8435;52.184;5.406;2023-02-23T05:25:01;47.07;;;32.27;;
16642;SDS011;8435;52.184;5.406;2023-02-23T05:27:32;45.73;;;31.40;;
16642;SDS011;8435;52.184;5.406;2023-02-23T05:29:59;44.70;;;30.27;;
16642;SDS011;8435;52.184;5.406;2023-02-23T05:32:27;43.90;;;30.73;;
16642;SDS011;8435;52.184;5.406;2023-02-23T05:34:54;44.83;;;31.00;;
16642;SDS011;8435;52.184;5.406;2023-02-23T05:37:21;45.20;;;30.77;;
16642;SDS011;8435;52.184;5.406;2023-02-23T05:39:48;45.47;;;31.47;;
16642;SDS011;8435;52.184;5.406;2023-02-23T05:42:15;46.23;;;30.67;;
16642;SDS011;8435;52.184;5.406;2023-02-23T05:44:43;44.17;;;30.33;;
16642;SDS011;8435;52.184;5.406;2023-02-23T05:47:10;43.70;;;30.27;;
16642;SDS011;8435;52.184;5.406;2023-02-23T05:49:36;45.20;;;32.17;;
16642;SDS011;8435;52.184;5.406;2023-02-23T05:52:03;45.97;;;32.33;;
16642;SDS011;8435;52.184;5.406;2023-02-23T05:54:30;43.53;;;30.77;;
16642;SDS011;8435;52.184;5.406;2023-02-23T05:56:57;44.53;;;29.77;;
16642;SDS011;8435;52.184;5.406;2023-02-23T05:59:24;41.37;;;28.60;;
16642;SDS011;8435;52.184;5.406;2023-02-23T06:01:52;53.37;;;38.97;;
16642;SDS011;8435;52.184;5.406;2023-02-23T06:04:19;48.47;;;33.27;;
16642;SDS011;8435;52.184;5.406;2023-02-23T06:06:48;44.93;;;31.17;;
16642;SDS011;8435;52.184;5.406;2023-02-23T06:09:16;45.07;;;30.27;;
16642;SDS011;8435;52.184;5.406;2023-02-23T06:11:43;39.67;;;28.60;;
16642;SDS011;8435;52.184;5.406;2023-02-23T06:14:10;41.97;;;29.73;;
16642;SDS011;8435;52.184;5.406;2023-02-23T06:16:37;41.00;;;28.80;;
16642;SDS011;8435;52.184;5.406;2023-02-23T06:19:05;40.03;;;27.63;;
16642;SDS011;8435;52.184;5.406;2023-02-23T06:21:35;43.53;;;28.67;;
16642;SDS011;8435;52.184;5.406;2023-02-23T06:24:02;39.33;;;26.97;;
16642;SDS011;8435;52.184;5.406;2023-02-23T06:26:30;36.87;;;25.13;;
16642;SDS011;8435;52.184;5.406;2023-02-23T06:29:03;37.00;;;26.57;;
16642;SDS011;8435;52.184;5.406;2023-02-23T06:31:33;35.80;;;25.70;;
16642;SDS011;8435;52.184;5.406;2023-02-23T06:34:03;38.97;;;27.97;;
16642;SDS011;8435;52.184;5.406;2023-02-23T06:36:31;38.47;;;27.23;;
16642;SDS011;8435;52.184;5.406;2023-02-23T06:39:00;36.40;;;25.97;;
16642;SDS011;8435;52.184;5.406;2023-02-23T06:41:28;37.23;;;27.20;;
16642;SDS011;8435;52.184;5.406;2023-02-23T06:43:55;38.77;;;27.70;;
16642;SDS011;8435;52.184;5.406;2023-02-23T06:46:22;37.50;;;27.50;;
16642;SDS011;8435;52.184;5.406;2023-02-23T06:48:49;41.50;;;28.03;;
16642;SDS011;8435;52.184;5.406;2023-02-23T06:51:19;40.20;;;27.83;;
16642;SDS011;8435;52.184;5.406;2023-02-23T06:53:48;38.47;;;27.77;;
16642;SDS011;8435;52.184;5.406;2023-02-23T06:56:16;37.83;;;28.20;;
16642;SDS011;8435;52.184;5.406;2023-02-23T06:58:43;41.60;;;27.87;;
16642;SDS011;8435;52.184;5.406;2023-02-23T07:01:10;41.50;;;29.50;;
16642;SDS011;8435;52.184;5.406;2023-02-23T07:03:40;39.07;;;27.67;;
16642;SDS011;8435;52.184;5.406;2023-02-23T07:06:09;41.13;;;28.63;;
16642;SDS011;8435;52.184;5.406;2023-02-23T07:08:36;36.20;;;25.33;;
16642;SDS011;8435;52.184;5.406;2023-02-23T07:11:06;40.63;;;27.70;;
16642;SDS011;8435;52.184;5.406;2023-02-23T07:13:34;38.07;;;27.43;;
16642;SDS011;8435;52.184;5.406;2023-02-23T07:16:07;37.80;;;27.73;;
16642;SDS011;8435;52.184;5.406;2023-02-23T07:18:37;42.20;;;27.40;;
16642;SDS011;8435;52.184;5.406;2023-02-23T07:21:04;37.67;;;27.13;;
16642;SDS011;8435;52.184;5.406;2023-02-23T07:23:36;41.80;;;29.03;;
16642;SDS011;8435;52.184;5.406;2023-02-23T07:26:02;39.93;;;27.97;;
16642;SDS011;8435;52.184;5.406;2023-02-23T07:28:31;39.97;;;28.00;;
16642;SDS011;8435;52.184;5.406;2023-02-23T07:30:58;39.97;;;27.53;;
16642;SDS011;8435;52.184;5.406;2023-02-23T07:33:24;41.77;;;27.53;;
16642;SDS011;8435;52.184;5.406;2023-02-23T07:35:51;42.53;;;28.13;;
16642;SDS011;8435;52.184;5.406;2023-02-23T07:38:18;39.87;;;27.57;;
16642;SDS011;8435;52.184;5.406;2023-02-23T07:40:47;43.10;;;27.60;;
16642;SDS011;8435;52.184;5.406;2023-02-23T07:43:16;39.13;;;26.70;;
16642;SDS011;8435;52.184;5.406;2023-02-23T07:45:46;41.47;;;27.93;;
16642;SDS011;8435;52.184;5.406;2023-02-23T07:48:13;39.83;;;27.57;;
16642;SDS011;8435;52.184;5.406;2023-02-23T07:50:40;38.40;;;27.43;;
16642;SDS011;8435;52.184;5.406;2023-02-23T07:53:07;41.20;;;28.10;;
16642;SDS011;8435;52.184;5.406;2023-02-23T07:55:35;41.87;;;27.30;;
16642;SDS011;8435;52.184;5.406;2023-02-23T07:58:04;37.60;;;26.67;;
16642;SDS011;8435;52.184;5.406;2023-02-23T08:00:34;39.23;;;26.60;;
16642;SDS011;8435;52.184;5.406;2023-02-23T08:03:05;37.90;;;25.77;;
16642;SDS011;8435;52.184;5.406;2023-02-23T08:05:32;40.77;;;27.43;;
16642;SDS011;8435;52.184;5.406;2023-02-23T08:08:00;39.70;;;27.87;;
16642;SDS011;8435;52.184;5.406;2023-02-23T08:10:26;41.30;;;28.97;;
16642;SDS011;8435;52.184;5.406;2023-02-23T08:12:53;42.00;;;27.20;;
16642;SDS011;8435;52.184;5.406;2023-02-23T08:15:22;43.90;;;28.53;;
16642;SDS011;8435;52.184;5.406;2023-02-23T08:17:49;38.73;;;25.87;;
16642;SDS011;8435;52.184;5.406;2023-02-23T08:20:20;41.73;;;27.47;;
16642;SDS011;8435;52.184;5.406;2023-02-23T08:22:51;42.10;;;28.17;;
16642;SDS011;8435;52.184;5.406;2023-02-23T08:25:20;41.63;;;27.73;;
16642;SDS011;8435;52.184;5.406;2023-02-23T08:27:47;43.70;;;28.63;;
16642;SDS011;8435;52.184;5.406;2023-02-23T08:30:16;44.73;;;27.93;;
16642;SDS011;8435;52.184;5.406;2023-02-23T08:32:44;42.17;;;27.73;;
16642;SDS011;8435;52.184;5.406;2023-02-23T08:35:12;41.50;;;27.17;;
16642;SDS011;8435;52.184;5.406;2023-02-23T08:37:40;39.80;;;26.33;;
16642;SDS011;8435;52.184;5.406;2023-02-23T08:40:07;36.37;;;25.23;;
16642;SDS011;8435;52.184;5.406;2023-02-23T08:42:36;37.03;;;25.67;;
16642;SDS011;8435;52.184;5.406;2023-02-23T08:45:03;44.40;;;27.37;;
16642;SDS011;8435;52.184;5.406;2023-02-23T08:47:30;40.33;;;26.90;;
16642;SDS011;8435;52.184;5.406;2023-02-23T08:49:58;40.33;;;26.43;;
16642;SDS011;8435;52.184;5.406;2023-02-23T08:52:25;40.93;;;25.90;;
16642;SDS011;8435;52.184;5.406;2023-02-23T08:54:54;39.13;;;24.33;;
16642;SDS011;8435;52.184;5.406;2023-02-23T08:57:22;38.53;;;24.97;;
16642;SDS011;8435;52.184;5.406;2023-02-23T08:59:50;38.57;;;24.80;;
16642;SDS011;8435;52.184;5.406;2023-02-23T09:02:17;37.07;;;23.73;;
16642;SDS011;8435;52.184;5.406;2023-02-23T09:04:43;39.77;;;25.33;;
16642;SDS011;8435;52.184;5.406;2023-02-23T09:07:12;38.93;;;25.00;;
16642;SDS011;8435;52.184;5.406;2023-02-23T09:09:40;38.57;;;23.93;;
16642;SDS011;8435;52.184;5.406;2023-02-23T09:12:08;36.93;;;23.43;;
16642;SDS011;8435;52.184;5.406;2023-02-23T09:14:35;36.63;;;24.27;;
16642;SDS011;8435;52.184;5.406;2023-02-23T09:17:02;34.70;;;22.43;;
16642;SDS011;8435;52.184;5.406;2023-02-23T09:19:29;40.70;;;24.60;;
16642;SDS011;8435;52.184;5.406;2023-02-23T09:21:56;35.20;;;23.33;;
16642;SDS011;8435;52.184;5.406;2023-02-23T09:24:23;36.80;;;23.33;;
16642;SDS011;8435;52.184;5.406;2023-02-23T09:26:50;35.30;;;22.60;;
16642;SDS011;8435;52.184;5.406;2023-02-23T09:29:19;33.13;;;22.13;;
16642;SDS011;8435;52.184;5.406;2023-02-23T09:31:48;33.47;;;21.57;;
16642;SDS011;8435;52.184;5.406;2023-02-23T09:34:17;31.83;;;20.70;;
16642;SDS011;8435;52.184;5.406;2023-02-23T09:36:44;31.67;;;20.97;;
16642;SDS011;8435;52.184;5.406;2023-02-23T09:39:10;32.30;;;20.93;;
16642;SDS011;8435;52.184;5.406;2023-02-23T09:47:24;29.10;;;19.50;;
16642;SDS011;8435;52.184;5.406;2023-02-23T09:49:56;32.97;;;20.53;;
16642;SDS011;8435;52.184;5.406;2023-02-23T09:52:26;31.47;;;19.57;;
16642;SDS011;8435;52.184;5.406;2023-02-23T09:55:04;28.80;;;19.13;;
16642;SDS011;8435;52.184;5.406;2023-02-23T09:57:35;29.67;;;20.37;;
16642;SDS011;8435;52.184;5.406;2023-02-23T10:00:11;31.43;;;19.73;;
16642;SDS011;8435;52.184;5.406;2023-02-23T10:02:47;29.80;;;19.83;;
16642;SDS011;8435;52.184;5.406;2023-02-23T10:05:31;29.20;;;20.43;;
16642;SDS011;8435;52.184;5.406;2023-02-23T10:08:12;28.53;;;18.90;;
16642;SDS011;8435;52.184;5.406;2023-02-23T10:10:46;30.83;;;18.50;;
16642;SDS011;8435;52.184;5.406;2023-02-23T10:13:19;28.43;;;17.97;;
16642;SDS011;8435;52.184;5.406;2023-02-23T10:15:55;25.77;;;16.90;;
16642;SDS011;8435;52.184;5.406;2023-02-23T10:18:28;27.73;;;17.27;;
16642;SDS011;8435;52.184;5.406;2023-02-23T10:21:02;26.17;;;17.10;;
16642;SDS011;8435;52.184;5.406;2023-02-23T10:23:33;25.80;;;17.07;;
16642;SDS011;8435;52.184;5.406;2023-02-23T10:26:05;27.20;;;17.43;;
16642;SDS011;8435;52.184;5.406;2023-02-23T10:28:37;23.53;;;15.47;;
16642;SDS011;8435;52.184;5.406;2023-02-23T10:31:13;27.03;;;16.70;;
16642;SDS011;8435;52.184;5.406;2023-02-23T10:33:49;23.07;;;14.67;;
16642;SDS011;8435;52.184;5.406;2023-02-23T10:36:24;23.03;;;15.13;;
16642;SDS011;8435;52.184;5.406;2023-02-23T10:38:58;23.47;;;15.60;;
16642;SDS011;8435;52.184;5.406;2023-02-23T10:41:25;21.87;;;14.93;;
16642;SDS011;8435;52.184;5.406;2023-02-23T10:43:51;23.73;;;15.20;;
16642;SDS011;8435;52.184;5.406;2023-02-23T10:46:23;20.20;;;13.50;;
16642;SDS011;8435;52.184;5.406;2023-02-23T10:48:54;19.23;;;13.43;;
16642;SDS011;8435;52.184;5.406;2023-02-23T10:51:26;22.10;;;13.53;;
16642;SDS011;8435;52.184;5.406;2023-02-23T10:53:57;19.83;;;12.47;;
16642;SDS011;8435;52.184;5.406;2023-02-23T10:56:24;19.67;;;13.53;;
16642;SDS011;8435;52.184;5.406;2023-02-23T10:58:58;19.53;;;12.57;;
16642;SDS011;8435;52.184;5.406;2023-02-23T11:01:33;16.90;;;12.13;;
16642;SDS011;8435;52.184;5.406;2023-02-23T11:04:11;16.83;;;12.60;;
16642;SDS011;8435;52.184;5.406;2023-02-23T11:06:41;15.90;;;11.90;;
16642;SDS011;8435;52.184;5.406;2023-02-23T11:09:15;18.23;;;12.00;;
16642;SDS011;8435;52.184;5.406;2023-02-23T11:11:54;19.03;;;11.80;;
16642;SDS011;8435;52.184;5.406;2023-02-23T11:14:22;19.23;;;11.77;;
16642;SDS011;8435;52.184;5.406;2023-02-23T11:16:53;16.57;;;11.33;;
16642;SDS011;8435;52.184;5.406;2023-02-23T11:19:23;18.03;;;12.47;;
16642;SDS011;8435;52.184;5.406;2023-02-23T11:21:55;18.13;;;12.97;;
16642;SDS011;8435;52.184;5.406;2023-02-23T11:24:23;18.80;;;12.20;;
16642;SDS011;8435;52.184;5.406;2023-02-23T11:26:54;16.30;;;11.87;;
16642;SDS011;8435;52.184;5.406;2023-02-23T11:29:24;18.07;;;12.90;;
16642;SDS011;8435;52.184;5.406;2023-02-23T11:32:06;16.40;;;10.83;;
16642;SDS011;8435;52.184;5.406;2023-02-23T11:34:37;17.80;;;11.83;;
16642;SDS011;8435;52.184;5.406;2023-02-23T11:37:17;18.13;;;12.23;;
16642;SDS011;8435;52.184;5.406;2023-02-23T11:39:50;17.67;;;13.03;;
16642;SDS011;8435;52.184;5.406;2023-02-23T11:42:19;21.57;;;14.23;;
16642;SDS011;8435;52.184;5.406;2023-02-23T11:44:50;22.03;;;13.67;;
16642;SDS011;8435;52.184;5.406;2023-02-23T11:47:28;21.17;;;14.17;;
16642;SDS011;8435;52.184;5.406;2023-02-23T11:49:57;21.30;;;14.10;;
16642;SDS011;8435;52.184;5.406;2023-02-23T11:52:25;22.87;;;14.23;;
16642;SDS011;8435;52.184;5.406;2023-02-23T11:54:53;19.37;;;13.83;;
16642;SDS011;8435;52.184;5.406;2023-02-23T11:57:23;22.07;;;15.10;;
16642;SDS011;8435;52.184;5.406;2023-02-23T11:59:55;21.63;;;14.70;;
16642;SDS011;8435;52.184;5.406;2023-02-23T12:02:25;21.37;;;13.70;;
16642;SDS011;8435;52.184;5.406;2023-02-23T12:05:02;20.93;;;14.00;;
16642;SDS011;8435;52.184;5.406;2023-02-23T12:07:34;20.93;;;13.30;;
16642;SDS011;8435;52.184;5.406;2023-02-23T12:10:06;19.57;;;13.50;;
16642;SDS011;8435;52.184;5.406;2023-02-23T12:12:43;20.33;;;14.37;;
16642;SDS011;8435;52.184;5.406;2023-02-23T12:15:25;20.90;;;14.47;;
16642;SDS011;8435;52.184;5.406;2023-02-23T12:17:58;17.33;;;12.23;;
16642;SDS011;8435;52.184;5.406;2023-02-23T12:20:33;20.80;;;13.57;;
16642;SDS011;8435;52.184;5.406;2023-02-23T12:23:06;21.07;;;14.00;;
16642;SDS011;8435;52.184;5.406;2023-02-23T12:25:37;21.97;;;14.33;;
16642;SDS011;8435;52.184;5.406;2023-02-23T12:28:12;19.63;;;13.00;;
16642;SDS011;8435;52.184;5.406;2023-02-23T12:30:52;18.47;;;13.27;;
16642;SDS011;8435;52.184;5.406;2023-02-23T12:33:24;22.57;;;13.10;;
16642;SDS011;8435;52.184;5.406;2023-02-23T12:36:00;21.67;;;14.03;;
16642;SDS011;8435;52.184;5.406;2023-02-23T12:38:38;21.23;;;12.13;;
16642;SDS011;8435;52.184;5.406;2023-02-23T12:41:13;17.77;;;12.17;;
16642;SDS011;8435;52.184;5.406;2023-02-23T12:43:46;17.87;;;12.80;;
16642;SDS011;8435;52.184;5.406;2023-02-23T12:46:17;20.10;;;13.47;;
16642;SDS011;8435;52.184;5.406;2023-02-23T12:48:49;19.30;;;13.23;;
16642;SDS011;8435;52.184;5.406;2023-02-23T12:51:26;19.20;;;13.97;;
16642;SDS011;8435;52.184;5.406;2023-02-23T12:53:58;23.10;;;15.00;;
16642;SDS011;8435;52.184;5.406;2023-02-23T12:59:14;20.00;;;14.07;;
16642;SDS011;8435;52.184;5.406;2023-02-23T13:01:52;18.17;;;12.93;;
16642;SDS011;8435;52.184;5.406;2023-02-23T13:04:31;17.90;;;12.27;;
16642;SDS011;8435;52.184;5.406;2023-02-23T13:07:17;18.90;;;12.40;;
16642;SDS011;8435;52.184;5.406;2023-02-23T13:09:54;16.67;;;11.40;;
16642;SDS011;8435;52.184;5.406;2023-02-23T13:12:31;15.47;;;11.40;;
16642;SDS011;8435;52.184;5.406;2023-02-23T13:15:11;16.57;;;11.30;;
16642;SDS011;8435;52.184;5.406;2023-02-23T13:17:47;16.13;;;10.70;;
16642;SDS011;8435;52.184;5.406;2023-02-23T13:20:22;17.07;;;11.80;;
16642;SDS011;8435;52.184;5.406;2023-02-23T13:22:57;15.83;;;11.23;;
16642;SDS011;8435;52.184;5.406;2023-02-23T13:25:34;17.13;;;11.37;;
16642;SDS011;8435;52.184;5.406;2023-02-23T13:28:07;19.13;;;13.13;;
16642;SDS011;8435;52.184;5.406;2023-02-23T13:30:41;19.90;;;12.80;;
16642;SDS011;8435;52.184;5.406;2023-02-23T13:33:14;20.67;;;13.67;;
16642;SDS011;8435;52.184;5.406;2023-02-23T13:35:51;21.60;;;13.23;;
16642;SDS011;8435;52.184;5.406;2023-02-23T13:38:24;16.63;;;11.60;;
16642;SDS011;8435;52.184;5.406;2023-02-23T13:40:58;19.33;;;12.07;;
16642;SDS011;8435;52.184;5.406;2023-02-23T13:43:36;17.73;;;12.40;;
16642;SDS011;8435;52.184;5.406;2023-02-23T13:46:14;16.60;;;11.47;;
16642;SDS011;8435;52.184;5.406;2023-02-23T13:48:49;18.13;;;12.20;;
16642;SDS011;8435;52.184;5.406;2023-02-23T13:51:22;18.70;;;12.97;;
16642;SDS011;8435;52.184;5.406;2023-02-23T13:53:59;15.93;;;12.07;;
16642;SDS011;8435;52.184;5.406;2023-02-23T13:56:30;16.73;;;10.87;;
16642;SDS011;8435;52.184;5.406;2023-02-23T13:59:03;13.83;;;10.20;;
16642;SDS011;8435;52.184;5.406;2023-02-23T14:01:35;13.97;;;10.83;;
16642;SDS011;8435;52.184;5.406;2023-02-23T14:04:04;15.77;;;9.83;;
16642;SDS011;8435;52.184;5.406;2023-02-23T14:06:38;15.67;;;10.20;;
16642;SDS011;8435;52.184;5.406;2023-02-23T14:09:17;13.10;;;9.57;;
16642;SDS011;8435;52.184;5.406;2023-02-23T14:11:48;15.73;;;10.77;;
16642;SDS011;8435;52.184;5.406;2023-02-23T14:20:19;16.43;;;11.13;;
16642;SDS011;8435;52.184;5.406;2023-02-23T14:26:17;18.83;;;12.57;;
16642;SDS011;8435;52.184;5.406;2023-02-23T14:31:56;23.13;;;14.50;;
16642;SDS011;8435;52.184;5.406;2023-02-23T14:34:43;23.83;;;14.93;;
16642;SDS011;8435;52.184;5.406;2023-02-23T14:37:15;24.20;;;14.93;;
16642;SDS011;8435;52.184;5.406;2023-02-23T14:39:47;26.60;;;16.47;;
16642;SDS011;8435;52.184;5.406;2023-02-23T14:42:19;25.53;;;16.83;;
16642;SDS011;8435;52.184;5.406;2023-02-23T14:44:48;29.07;;;17.90;;
16642;SDS011;8435;52.184;5.406;2023-02-23T14:47:17;20.13;;;12.60;;
16642;SDS011;8435;52.184;5.406;2023-02-23T14:49:47;29.37;;;19.03;;
16642;SDS011;8435;52.184;5.406;2023-02-23T14:52:18;28.53;;;17.33;;
16642;SDS011;8435;52.184;5.406;2023-02-23T14:54:48;30.37;;;19.53;;
16642;SDS011;8435;52.184;5.406;2023-02-23T14:57:19;34.63;;;20.50;;
16642;SDS011;8435;52.184;5.406;2023-02-23T14:59:51;36.07;;;20.83;;
16642;SDS011;8435;52.184;5.406;2023-02-23T15:02:22;32.07;;;19.93;;
16642;SDS011;8435;52.184;5.406;2023-02-23T15:04:50;22.93;;;12.97;;
16642;SDS011;8435;52.184;5.406;2023-02-23T15:07:18;15.47;;;8.60;;
16642;SDS011;8435;52.184;5.406;2023-02-23T15:09:58;12.67;;;6.37;;
16642;SDS011;8435;52.184;5.406;2023-02-23T15:12:27;8.90;;;4.77;;
16642;SDS011;8435;52.184;5.406;2023-02-23T15:14:56;14.80;;;4.93;;
16642;SDS011;8435;52.184;5.406;2023-02-23T15:17:26;12.17;;;4.43;;
16642;SDS011;8435;52.184;5.406;2023-02-23T15:19:56;17.57;;;4.10;;
16642;SDS011;8435;52.184;5.406;2023-02-23T15:22:26;15.07;;;5.03;;
16642;SDS011;8435;52.184;5.406;2023-02-23T15:24:56;11.60;;;4.17;;
16642;SDS011;8435;52.184;5.406;2023-02-23T15:27:35;12.97;;;4.47;;
16642;SDS011;8435;52.184;5.406;2023-02-23T15:30:19;14.90;;;4.93;;
16642;SDS011;8435;52.184;5.406;2023-02-23T15:32:57;14.17;;;4.27;;
16642;SDS011;8435;52.184;5.406;2023-02-23T15:35:28;13.93;;;4.83;;